アンタナナリボ の空港の天気 - METARとTAF

イヴァト空港(アンタナナリボ) ( FMMI / TNR ) - マダガスカル アンタナナリボ
飛行場実況気象(Metar)
観測時間10/15 20:00 EAT (10/15 17:00 UTC)
風向・風速東南東 4m/s
視程6000m
天気現象弱い雷雨
少しの雲 雲底高度 300m
全天の4割程度の雲 雲底高度 520m
全天の8割程度の雲 雲底高度 610m
気温18℃
湿度94%
気圧1020hPa
METARFMMI 151700Z 11008KT 6000 -TSRA FEW010 SCT017CB BKN020 18/17 Q1020 TEMPO TS
過去の天気等 Google飛行場航空写真 Wunderground天気予報

過去48時間のMETAR

飛行場予報(TAF)
発表時間: -
15日15時 EAT ~ 15日24時 EAT に 確率 40% で一時的に
風向・風速不定 7m/s
視程4000m
天気現象雷雨
15日23時 EAT ~ 16日1時 EAT に徐々に
少しの雲 雲底高度 520m
全天の8割程度の雲 雲底高度 610m
16日9時 EAT ~ 16日11時 EAT に徐々に
風向・風速東南東 6m/s
TAF
FMMI 151100Z 1512/1618 VRB04KT 9999 BKN020CB
PROB40 TEMPO 1512/1521 VRB14KT 4000 TSRA
BECMG 1520/1522 FEW017 BKN020
BECMG 1606/1608 12012KT